createdAt,value
2022-08-19T00:02:17.513Z,10.00
2022-08-19T00:05:04.573Z,9.50
2022-08-19T00:07:50.902Z,9.67
2022-08-19T00:10:36.381Z,9.93
2022-08-19T00:13:21.659Z,9.70
2022-08-19T00:16:08.150Z,9.87
2022-08-19T00:18:54.552Z,9.80
2022-08-19T00:21:40.580Z,10.30
2022-08-19T00:24:26.563Z,10.23
2022-08-19T00:27:26.221Z,10.27
2022-08-19T00:30:13.049Z,9.80
2022-08-19T00:32:59.677Z,10.43
2022-08-19T00:35:44.983Z,10.27
2022-08-19T00:38:37.480Z,10.40
2022-08-19T00:41:25.317Z,10.30
2022-08-19T00:44:14.755Z,10.23
2022-08-19T00:47:01.075Z,10.50
2022-08-19T00:49:54.569Z,9.87
2022-08-19T00:52:46.452Z,10.13
2022-08-19T00:55:33.578Z,9.67
2022-08-19T00:58:22.296Z,10.50
2022-08-19T01:01:08.722Z,10.27
2022-08-19T01:03:56.808Z,10.10
2022-08-19T01:06:43.732Z,10.27
2022-08-19T01:09:31.940Z,10.37
2022-08-19T01:12:18.633Z,10.43
2022-08-19T01:15:05.169Z,10.33
2022-08-19T01:17:52.560Z,10.13
2022-08-19T01:20:38.486Z,10.03
2022-08-19T01:23:43.372Z,10.37
2022-08-19T01:26:29.458Z,9.70
2022-08-19T01:29:16.854Z,10.07
2022-08-19T01:32:02.595Z,10.30
2022-08-19T01:34:48.221Z,10.67
2022-08-19T01:37:52.151Z,10.37
2022-08-19T01:40:41.362Z,11.03
2022-08-19T01:43:27.543Z,10.87
2022-08-19T01:46:12.891Z,10.40
2022-08-19T01:48:58.128Z,10.77
2022-08-19T01:51:43.435Z,10.33
2022-08-19T01:54:29.388Z,9.80
2022-08-19T01:57:15.758Z,10.03
2022-08-19T02:00:01.660Z,10.47
2022-08-19T02:02:56.683Z,10.63
2022-08-19T02:05:43.075Z,11.23
2022-08-19T02:08:28.569Z,11.00
2022-08-19T02:11:32.657Z,10.73
2022-08-19T02:14:17.770Z,10.33
2022-08-19T02:17:04.212Z,11.40
2022-08-19T02:19:49.972Z,10.77
2022-08-19T02:22:36.290Z,10.87
2022-08-19T02:25:21.915Z,9.97
2022-08-19T02:28:08.256Z,10.57
2022-08-19T02:30:53.792Z,11.10
2022-08-19T02:33:40.087Z,10.73
2022-08-19T02:36:26.518Z,10.97
2022-08-19T02:39:11.967Z,10.90
2022-08-19T02:41:57.289Z,10.97
2022-08-19T02:44:42.407Z,10.27
2022-08-19T02:47:27.719Z,9.93
2022-08-19T02:50:13.811Z,11.47
2022-08-19T02:52:59.454Z,10.87
2022-08-19T02:55:47.407Z,11.67
2022-08-19T02:58:32.857Z,10.73
2022-08-19T03:01:28.027Z,10.80
2022-08-19T03:04:16.553Z,11.30
2022-08-19T03:07:10.840Z,11.57
2022-08-19T03:09:56.759Z,12.10
2022-08-19T03:12:42.207Z,12.37
2022-08-19T03:15:27.542Z,13.00
2022-08-19T03:18:13.494Z,12.40
2022-08-19T03:20:58.966Z,12.87
2022-08-19T03:23:44.659Z,12.97
2022-08-19T03:26:30.810Z,14.10
2022-08-19T03:29:22.234Z,14.10
2022-08-19T03:32:32.490Z,14.37
2022-08-19T03:35:18.729Z,14.17
2022-08-19T03:38:05.721Z,14.33
2022-08-19T03:40:51.195Z,13.57
2022-08-19T03:43:41.476Z,13.43
2022-08-19T03:46:29.172Z,13.40
2022-08-19T03:49:15.120Z,13.37
2022-08-19T03:52:03.564Z,12.73
2022-08-19T03:54:49.077Z,12.87
2022-08-19T03:57:35.548Z,13.37
2022-08-19T04:00:21.242Z,12.93
2022-08-19T04:03:06.571Z,13.43
2022-08-19T04:05:52.042Z,12.40
2022-08-19T04:08:37.665Z,12.47
2022-08-19T04:11:43.906Z,11.87
2022-08-19T04:14:31.516Z,25.60
2022-08-19T04:17:17.374Z,20.33
2022-08-19T04:20:07.102Z,19.40
2022-08-19T04:22:52.500Z,18.93
2022-08-19T04:25:43.496Z,17.73
2022-08-19T04:28:29.885Z,16.30
2022-08-19T04:31:30.986Z,16.87
2022-08-19T04:34:18.788Z,16.60
2022-08-19T04:37:12.752Z,16.03
2022-08-19T04:40:16.798Z,16.03
2022-08-19T04:43:02.409Z,15.67
2022-08-19T04:45:47.975Z,16.70
2022-08-19T04:48:35.242Z,17.23
2022-08-19T04:51:21.635Z,16.40
2022-08-19T04:54:06.911Z,15.13
2022-08-19T04:56:55.423Z,15.37
2022-08-19T04:59:40.684Z,15.00
2022-08-19T05:02:26.395Z,15.10
2022-08-19T05:05:12.082Z,15.07
2022-08-19T05:07:57.780Z,15.30
2022-08-19T05:10:43.355Z,15.50
2022-08-19T05:13:28.661Z,15.53
2022-08-19T05:16:14.507Z,15.50
2022-08-19T05:19:18.586Z,14.37
2022-08-19T05:22:22.418Z,15.10
2022-08-19T05:25:13.020Z,15.30
2022-08-19T05:27:59.379Z,14.60
2022-08-19T05:30:47.471Z,13.07
2022-08-19T05:33:33.469Z,13.07
2022-08-19T05:36:20.978Z,14.17
2022-08-19T05:39:12.981Z,12.57
2022-08-19T05:42:01.434Z,12.47
2022-08-19T05:44:48.087Z,12.47
2022-08-19T05:47:33.564Z,12.73
2022-08-19T05:50:19.103Z,11.77
2022-08-19T05:53:05.167Z,11.83
2022-08-19T05:55:50.851Z,11.17
2022-08-19T05:58:37.424Z,10.77
2022-08-19T06:01:22.667Z,10.90
2022-08-19T06:04:08.384Z,10.77
2022-08-19T06:06:55.095Z,10.17
2022-08-19T06:09:43.677Z,9.73
2022-08-19T06:12:41.476Z,10.37
2022-08-19T06:15:29.108Z,10.30
2022-08-19T06:18:15.382Z,10.00
2022-08-19T06:21:05.296Z,10.37
2022-08-19T06:23:52.623Z,10.53
2022-08-19T06:26:41.840Z,9.60
2022-08-19T06:29:28.923Z,10.20
2022-08-19T06:32:17.344Z,9.97
2022-08-19T06:35:03.120Z,9.77
2022-08-19T06:37:48.224Z,9.57
2022-08-19T06:40:33.736Z,9.30
2022-08-19T06:43:18.769Z,9.10
2022-08-19T06:46:04.819Z,9.83
2022-08-19T06:48:54.433Z,9.67
2022-08-19T06:51:42.428Z,10.90
2022-08-19T06:54:30.887Z,10.53
2022-08-19T06:57:16.966Z,10.97
2022-08-19T07:00:03.624Z,10.53
2022-08-19T07:02:53.395Z,10.33
2022-08-19T07:05:45.698Z,9.68
2022-08-19T07:08:31.984Z,11.60
2022-08-19T07:11:19.997Z,10.63
2022-08-19T07:14:07.624Z,11.87
2022-08-19T07:17:08.122Z,11.83
2022-08-19T07:19:54.517Z,12.53
2022-08-19T07:22:41.014Z,12.53
2022-08-19T07:25:32.250Z,13.23
2022-08-19T07:28:24.765Z,12.68
2022-08-19T07:31:16.984Z,12.47
2022-08-19T07:34:11.570Z,11.73
2022-08-19T07:36:57.645Z,11.43
2022-08-19T07:39:43.044Z,12.40
2022-08-19T07:42:30.594Z,12.27
2022-08-19T07:45:17.014Z,11.60
2022-08-19T07:48:02.803Z,11.77
2022-08-19T07:50:49.414Z,11.80
2022-08-19T07:53:39.564Z,12.20
2022-08-19T07:56:25.396Z,12.60
2022-08-19T07:59:11.179Z,11.87
2022-08-19T08:01:58.059Z,12.70
2022-08-19T08:05:02.230Z,12.77
2022-08-19T08:08:07.153Z,12.97
2022-08-19T08:10:54.634Z,13.47
2022-08-19T08:13:42.741Z,14.17
2022-08-19T08:16:32.164Z,12.83
2022-08-19T08:19:25.923Z,12.60
2022-08-19T08:22:32.991Z,13.73
2022-08-19T08:25:23.716Z,12.40
2022-08-19T08:28:11.301Z,12.80
2022-08-19T08:31:02.637Z,12.80
2022-08-19T08:33:55.111Z,12.80
2022-08-19T08:36:43.610Z,12.63
2022-08-19T08:39:29.711Z,12.50
2022-08-19T08:42:28.487Z,13.70
2022-08-19T08:45:18.065Z,11.47
2022-08-19T08:48:22.351Z,12.10
2022-08-19T08:51:15.206Z,11.73
2022-08-19T08:54:09.945Z,10.40
2022-08-19T08:56:56.034Z,10.33
2022-08-19T08:59:44.338Z,11.37
2022-08-19T09:02:29.983Z,10.40
2022-08-19T09:05:16.278Z,10.77
2022-08-19T09:08:08.014Z,9.73
2022-08-19T09:10:56.268Z,10.67
2022-08-19T09:13:58.176Z,12.23
2022-08-19T09:16:43.381Z,17.93
2022-08-19T09:19:29.500Z,27.57
2022-08-19T09:22:14.618Z,25.30
2022-08-19T09:25:15.878Z,24.43
2022-08-19T09:28:05.634Z,20.77
2022-08-19T09:30:52.990Z,19.00
2022-08-19T09:33:39.217Z,16.67
2022-08-19T09:36:34.702Z,15.20
2022-08-19T09:39:20.537Z,13.93
2022-08-19T09:42:16.435Z,14.33
2022-08-19T09:45:17.228Z,13.77
2022-08-19T09:48:03.792Z,13.50
2022-08-19T09:50:51.957Z,12.40
2022-08-19T09:53:38.945Z,12.53
2022-08-19T09:56:25.626Z,11.67
2022-08-19T09:59:12.999Z,10.53
2022-08-19T10:02:03.868Z,10.37
2022-08-19T10:05:14.670Z,9.37
2022-08-19T10:08:13.207Z,8.40
2022-08-19T10:10:59.970Z,8.50
2022-08-19T10:14:06.823Z,7.77
2022-08-19T10:16:52.825Z,7.17
2022-08-19T10:19:39.049Z,7.03
2022-08-19T10:22:25.761Z,6.73
2022-08-19T10:25:12.142Z,6.97
2022-08-19T10:27:57.619Z,6.57
2022-08-19T10:30:43.085Z,6.03
2022-08-19T10:33:38.857Z,5.97
2022-08-19T10:36:37.031Z,5.70
2022-08-19T10:39:43.095Z,5.10
2022-08-19T10:42:29.190Z,5.17
2022-08-19T10:45:14.481Z,4.83
2022-08-19T10:48:00.667Z,4.07
2022-08-19T10:51:04.531Z,4.10
2022-08-19T10:53:50.721Z,4.10
2022-08-19T10:56:52.113Z,4.03
2022-08-19T10:59:37.925Z,3.80
2022-08-19T11:02:23.485Z,4.20
2022-08-19T11:05:12.784Z,3.77
2022-08-19T11:07:59.435Z,4.13
2022-08-19T11:10:50.318Z,4.07
2022-08-19T11:13:39.835Z,3.73
2022-08-19T11:16:27.658Z,3.93
2022-08-19T11:19:15.048Z,4.80
2022-08-19T11:22:04.777Z,4.07
2022-08-19T11:24:50.248Z,4.13
2022-08-19T11:27:40.337Z,3.87
2022-08-19T11:30:25.844Z,4.37
2022-08-19T11:33:11.880Z,4.13
2022-08-19T11:36:02.157Z,4.83
2022-08-19T11:38:50.896Z,4.70
2022-08-19T11:41:37.262Z,5.03
2022-08-19T11:44:23.110Z,4.80
2022-08-19T11:47:08.778Z,5.10
2022-08-19T11:49:54.838Z,5.60
2022-08-19T11:52:40.247Z,7.40
2022-08-19T11:55:25.591Z,8.47
2022-08-19T11:58:18.971Z,7.70
2022-08-19T12:01:10.430Z,7.63
2022-08-19T12:03:57.666Z,8.90
2022-08-19T12:06:43.288Z,8.43
2022-08-19T12:09:30.965Z,8.63
2022-08-19T12:12:16.878Z,8.63
2022-08-19T12:15:03.099Z,10.13
2022-08-19T12:17:48.663Z,9.10
2022-08-19T12:20:41.115Z,8.77
2022-08-19T12:23:26.264Z,8.20
2022-08-19T12:26:12.719Z,8.67
2022-08-19T12:29:00.454Z,9.33
2022-08-19T12:31:48.592Z,8.97
2022-08-19T12:34:35.036Z,8.47
2022-08-19T12:37:20.599Z,9.63
2022-08-19T12:40:07.219Z,9.90
2022-08-19T12:42:52.858Z,10.90
2022-08-19T12:45:38.727Z,9.97
2022-08-19T12:48:33.799Z,10.33
2022-08-19T12:51:22.963Z,10.60
2022-08-19T12:54:09.178Z,9.47
2022-08-19T12:56:55.052Z,10.50
2022-08-19T12:59:40.658Z,10.10
2022-08-19T13:02:26.098Z,11.50
2022-08-19T13:05:21.155Z,12.30
2022-08-19T13:08:06.906Z,12.70
2022-08-19T13:10:52.195Z,13.30
2022-08-19T13:13:37.667Z,12.50
2022-08-19T13:16:27.303Z,12.20
2022-08-19T13:19:14.625Z,11.93
2022-08-19T13:22:01.175Z,14.50
2022-08-19T13:24:47.545Z,15.13
2022-08-19T13:27:33.776Z,13.83
2022-08-19T13:30:39.191Z,14.07
2022-08-19T13:33:26.623Z,12.17
2022-08-19T13:36:12.066Z,14.67
2022-08-19T13:38:58.617Z,15.87
2022-08-19T13:41:50.907Z,17.67
2022-08-19T13:44:36.350Z,18.92
2022-08-19T13:47:21.897Z,20.57
2022-08-19T13:50:08.146Z,21.40
2022-08-19T13:52:55.200Z,22.67
2022-08-19T13:55:42.901Z,22.63
2022-08-19T13:58:28.498Z,21.73
2022-08-19T14:01:19.491Z,23.70
2022-08-19T14:04:10.011Z,24.63
2022-08-19T14:06:56.039Z,23.90
2022-08-19T14:09:42.121Z,24.63
2022-08-19T14:12:29.256Z,22.73
2022-08-19T14:15:15.641Z,22.77
2022-08-19T14:18:00.947Z,20.67
2022-08-19T14:20:46.183Z,21.90
2022-08-19T14:23:32.452Z,21.20
2022-08-19T14:26:19.662Z,22.27
2022-08-19T14:29:04.777Z,21.97
2022-08-19T14:31:50.097Z,21.87
2022-08-19T14:34:38.361Z,21.10
2022-08-19T14:37:23.748Z,22.13
2022-08-19T14:40:12.497Z,20.83
2022-08-19T14:43:05.231Z,20.13
2022-08-19T14:45:51.018Z,21.23
2022-08-19T14:48:41.445Z,22.87
2022-08-19T14:51:27.872Z,22.77
2022-08-19T14:54:14.062Z,24.07
2022-08-19T14:56:59.769Z,24.10
2022-08-19T14:59:45.344Z,23.83
2022-08-19T15:02:34.465Z,25.27
2022-08-19T15:05:20.387Z,23.27
2022-08-19T15:08:06.109Z,25.10
2022-08-19T15:10:52.890Z,24.13
2022-08-19T15:13:40.544Z,23.90
2022-08-19T15:16:27.178Z,23.03
2022-08-19T15:19:12.904Z,22.53
2022-08-19T15:21:58.516Z,23.33
2022-08-19T15:24:47.941Z,22.13
2022-08-19T15:27:34.049Z,21.27
2022-08-19T15:30:28.004Z,21.00
2022-08-19T15:33:15.424Z,20.57
2022-08-19T15:36:00.744Z,20.43
2022-08-19T15:38:47.538Z,20.60
2022-08-19T15:41:34.504Z,20.77
2022-08-19T15:44:22.759Z,22.53
2022-08-19T15:47:08.240Z,20.33
2022-08-19T15:49:55.761Z,20.63
2022-08-19T15:52:53.642Z,20.57
2022-08-19T15:55:45.077Z,18.93
2022-08-19T15:58:49.143Z,20.40
2022-08-19T16:01:40.503Z,20.37
2022-08-19T16:04:45.055Z,20.43
2022-08-19T16:07:30.407Z,19.83
2022-08-19T16:10:27.033Z,21.70
2022-08-19T16:13:13.938Z,20.70
2022-08-19T16:15:59.413Z,20.37
2022-08-19T16:18:47.274Z,20.80
2022-08-19T16:21:34.386Z,20.53
2022-08-19T16:24:23.584Z,19.40
2022-08-19T16:27:08.923Z,21.07
2022-08-19T16:29:54.613Z,20.67
2022-08-19T16:32:43.884Z,20.50
2022-08-19T16:35:29.123Z,21.37
2022-08-19T16:38:14.562Z,20.63
2022-08-19T16:41:01.509Z,21.73
2022-08-19T16:43:49.306Z,20.27
2022-08-19T16:46:34.869Z,20.43
2022-08-19T16:49:52.194Z,21.43
2022-08-19T16:52:26.978Z,21.03
2022-08-19T16:55:12.178Z,22.70
2022-08-19T16:57:57.573Z,22.93
2022-08-19T17:00:42.857Z,21.70
2022-08-19T17:03:36.289Z,21.03
2022-08-19T17:06:26.424Z,20.80
2022-08-19T17:09:12.453Z,18.70
2022-08-19T17:11:58.242Z,25.53
2022-08-19T17:14:45.998Z,41.67
2022-08-19T17:17:31.950Z,46.27
2022-08-19T17:20:17.525Z,43.93
2022-08-19T17:23:03.531Z,181.60
2022-08-19T17:25:51.198Z,483.83
2022-08-19T17:28:36.501Z,467.30
2022-08-19T17:31:24.524Z,415.87
2022-08-19T17:34:10.083Z,477.57
2022-08-19T17:36:57.159Z,487.63
2022-08-19T17:39:42.313Z,320.67
2022-08-19T17:42:27.977Z,175.27
2022-08-19T17:45:14.857Z,195.20
2022-08-19T17:48:01.183Z,110.20
2022-08-19T17:50:46.767Z,90.33
2022-08-19T17:53:33.310Z,67.40
2022-08-19T17:56:21.397Z,50.00
2022-08-19T17:59:07.875Z,39.00
2022-08-19T18:01:58.060Z,37.93
2022-08-19T18:04:46.862Z,41.17
2022-08-19T18:07:34.402Z,40.10
2022-08-19T18:10:21.378Z,41.37
2022-08-19T18:13:17.171Z,40.67
2022-08-19T18:16:07.089Z,57.67
2022-08-19T18:18:54.538Z,92.03
2022-08-19T18:21:40.929Z,144.83
2022-08-19T18:24:26.446Z,182.73
2022-08-19T18:27:11.784Z,174.30
2022-08-19T18:29:59.178Z,187.77
2022-08-19T18:32:46.913Z,170.77
2022-08-19T18:35:33.143Z,151.60
2022-08-19T18:38:39.240Z,151.40
2022-08-19T18:41:43.361Z,133.00
2022-08-19T18:44:47.296Z,113.30
2022-08-19T18:47:51.419Z,106.60
2022-08-19T18:50:41.112Z,114.10
2022-08-19T18:53:29.728Z,96.60
2022-08-19T18:56:19.606Z,95.47
2022-08-19T18:59:05.187Z,66.67
2022-08-19T19:01:56.169Z,51.60
2022-08-19T19:04:41.700Z,59.90
2022-08-19T19:07:29.676Z,40.13
2022-08-19T19:10:15.392Z,37.50
2022-08-19T19:13:01.396Z,35.43
2022-08-19T19:15:47.130Z,36.00
2022-08-19T19:18:34.800Z,36.87
2022-08-19T19:21:23.099Z,34.80
2022-08-19T19:24:09.042Z,35.30
2022-08-19T19:26:54.787Z,41.53
2022-08-19T19:29:40.992Z,39.37
2022-08-19T19:32:30.887Z,34.23
2022-08-19T19:35:16.693Z,31.90
2022-08-19T19:38:02.629Z,35.17
2022-08-19T19:40:48.173Z,31.50
2022-08-19T19:43:38.868Z,34.03
2022-08-19T19:46:27.808Z,34.15
2022-08-19T19:49:14.023Z,31.37
2022-08-19T19:51:59.679Z,31.50
2022-08-19T19:54:47.890Z,29.73
2022-08-19T19:57:33.495Z,28.50
2022-08-19T20:00:19.523Z,27.37
2022-08-19T20:03:05.640Z,26.03
2022-08-19T20:05:52.485Z,25.77
2022-08-19T20:08:59.145Z,25.27
2022-08-19T20:11:53.973Z,25.83
2022-08-19T20:14:40.033Z,24.87
2022-08-19T20:17:25.472Z,24.27
2022-08-19T20:20:14.007Z,24.87
2022-08-19T20:22:59.590Z,22.67
2022-08-19T20:25:45.068Z,21.03
2022-08-19T20:28:30.397Z,21.23
2022-08-19T20:31:16.811Z,20.53
2022-08-19T20:34:02.597Z,20.17
2022-08-19T20:36:47.852Z,20.57
2022-08-19T20:39:33.235Z,20.93
2022-08-19T20:42:18.601Z,20.17
2022-08-19T20:45:07.388Z,19.93
2022-08-19T20:48:05.620Z,19.47
2022-08-19T20:50:50.677Z,20.10
2022-08-19T20:53:36.741Z,18.87
2022-08-19T20:56:22.285Z,18.40
2022-08-19T20:59:10.517Z,18.73
2022-08-19T21:01:56.442Z,17.77
2022-08-19T21:04:44.328Z,17.70
2022-08-19T21:07:39.267Z,18.00
2022-08-19T21:10:26.183Z,17.90
2022-08-19T21:13:11.818Z,18.10
2022-08-19T21:15:57.289Z,17.23
2022-08-19T21:18:42.563Z,16.70
2022-08-19T21:21:27.925Z,16.27
2022-08-19T21:24:13.094Z,16.93
2022-08-19T21:26:58.983Z,17.30
2022-08-19T21:29:44.296Z,15.83
2022-08-19T21:32:29.579Z,17.07
2022-08-19T21:35:14.907Z,15.97
2022-08-19T21:38:00.060Z,15.90
2022-08-19T21:40:45.565Z,15.97
2022-08-19T21:43:31.411Z,15.53
2022-08-19T21:46:17.542Z,15.33
2022-08-19T21:49:03.647Z,15.27
2022-08-19T21:51:49.856Z,15.63
2022-08-19T21:54:38.046Z,13.77
2022-08-19T21:57:24.704Z,15.77
2022-08-19T22:00:21.668Z,14.47
2022-08-19T22:03:07.383Z,14.13
2022-08-19T22:05:53.440Z,14.30
2022-08-19T22:08:39.848Z,14.53
2022-08-19T22:11:26.741Z,13.53
2022-08-19T22:14:11.915Z,13.83
2022-08-19T22:16:57.558Z,13.63
2022-08-19T22:19:44.435Z,13.33
2022-08-19T22:22:32.495Z,12.53
2022-08-19T22:25:32.007Z,12.40
2022-08-19T22:28:19.131Z,12.63
2022-08-19T22:31:13.424Z,13.13
2022-08-19T22:34:00.280Z,13.03
2022-08-19T22:36:45.498Z,12.63
2022-08-19T22:39:30.674Z,12.33
2022-08-19T22:42:20.079Z,12.30
2022-08-19T22:45:08.481Z,12.07
2022-08-19T22:47:53.998Z,11.83
2022-08-19T22:50:41.720Z,11.67
2022-08-19T22:53:27.044Z,11.63
2022-08-19T22:56:15.516Z,12.20
2022-08-19T22:59:03.167Z,11.90
2022-08-19T23:01:48.905Z,10.93
2022-08-19T23:04:34.688Z,11.00
2022-08-19T23:07:23.803Z,11.20
2022-08-19T23:10:10.529Z,11.17
2022-08-19T23:12:58.752Z,10.87
2022-08-19T23:15:46.358Z,10.73
2022-08-19T23:18:33.588Z,11.03
2022-08-19T23:21:19.205Z,10.33
2022-08-19T23:24:05.227Z,11.50
2022-08-19T23:27:09.848Z,11.23
2022-08-19T23:30:13.534Z,11.13
2022-08-19T23:33:25.259Z,11.07
2022-08-19T23:36:16.214Z,10.40
2022-08-19T23:39:01.587Z,11.43
2022-08-19T23:41:47.286Z,10.83
2022-08-19T23:44:32.717Z,11.07
2022-08-19T23:47:20.845Z,10.67
2022-08-19T23:50:07.648Z,11.23
2022-08-19T23:52:56.999Z,10.97
2022-08-19T23:55:44.766Z,9.57
2022-08-19T23:58:31.893Z,10.87
